sensor_id;sensor_type;location;lat;lon;timestamp;P1;durP1;ratioP1;P2;durP2;ratioP2
31043;SDS011;17710;52.520;13.352;2023-03-03T00:01:07;27.88;;;16.20;;
31043;SDS011;17710;52.520;13.352;2023-03-03T00:03:34;28.58;;;15.93;;
31043;SDS011;17710;52.520;13.352;2023-03-03T00:06:01;32.80;;;17.25;;
31043;SDS011;17710;52.520;13.352;2023-03-03T00:08:28;34.38;;;17.50;;
31043;SDS011;17710;52.520;13.352;2023-03-03T00:10:56;33.55;;;16.77;;
31043;SDS011;17710;52.520;13.352;2023-03-03T00:13:25;27.27;;;15.32;;
31043;SDS011;17710;52.520;13.352;2023-03-03T00:15:54;27.85;;;15.43;;
31043;SDS011;17710;52.520;13.352;2023-03-03T00:18:37;29.23;;;14.63;;
31043;SDS011;17710;52.520;13.352;2023-03-03T00:21:13;27.60;;;14.27;;
31043;SDS011;17710;52.520;13.352;2023-03-03T00:23:47;24.80;;;14.27;;
31043;SDS011;17710;52.520;13.352;2023-03-03T00:26:15;31.42;;;16.45;;
31043;SDS011;17710;52.520;13.352;2023-03-03T00:28:47;31.83;;;17.15;;
31043;SDS011;17710;52.520;13.352;2023-03-03T00:31:16;29.45;;;16.52;;
31043;SDS011;17710;52.520;13.352;2023-03-03T00:33:45;31.23;;;15.48;;
31043;SDS011;17710;52.520;13.352;2023-03-03T00:36:27;32.30;;;17.38;;
31043;SDS011;17710;52.520;13.352;2023-03-03T00:38:58;36.70;;;18.02;;
31043;SDS011;17710;52.520;13.352;2023-03-03T00:41:35;38.15;;;18.42;;
31043;SDS011;17710;52.520;13.352;2023-03-03T00:44:03;39.92;;;21.35;;
31043;SDS011;17710;52.520;13.352;2023-03-03T00:47:02;41.90;;;21.85;;
31043;SDS011;17710;52.520;13.352;2023-03-03T00:49:49;36.35;;;18.73;;
31043;SDS011;17710;52.520;13.352;2023-03-03T00:52:16;31.35;;;17.52;;
31043;SDS011;17710;52.520;13.352;2023-03-03T00:54:44;35.75;;;18.90;;
31043;SDS011;17710;52.520;13.352;2023-03-03T00:57:10;34.22;;;17.13;;
31043;SDS011;17710;52.520;13.352;2023-03-03T00:59:37;30.80;;;16.35;;
31043;SDS011;17710;52.520;13.352;2023-03-03T01:02:05;31.08;;;17.25;;
31043;SDS011;17710;52.520;13.352;2023-03-03T01:04:32;32.80;;;17.20;;
31043;SDS011;17710;52.520;13.352;2023-03-03T01:06:59;40.75;;;19.95;;
31043;SDS011;17710;52.520;13.352;2023-03-03T01:09:25;34.10;;;17.98;;
31043;SDS011;17710;52.520;13.352;2023-03-03T01:11:53;32.97;;;16.08;;
31043;SDS011;17710;52.520;13.352;2023-03-03T01:14:20;31.52;;;15.43;;
31043;SDS011;17710;52.520;13.352;2023-03-03T01:16:46;30.83;;;15.68;;
31043;SDS011;17710;52.520;13.352;2023-03-03T01:19:15;26.00;;;15.43;;
31043;SDS011;17710;52.520;13.352;2023-03-03T01:21:41;26.50;;;15.20;;
31043;SDS011;17710;52.520;13.352;2023-03-03T01:24:08;27.90;;;14.52;;
31043;SDS011;17710;52.520;13.352;2023-03-03T01:26:34;26.80;;;14.20;;
31043;SDS011;17710;52.520;13.352;2023-03-03T01:29:01;26.98;;;14.13;;
31043;SDS011;17710;52.520;13.352;2023-03-03T01:31:27;25.80;;;14.35;;
31043;SDS011;17710;52.520;13.352;2023-03-03T01:33:54;28.00;;;15.13;;
31043;SDS011;17710;52.520;13.352;2023-03-03T01:36:23;30.02;;;15.15;;
31043;SDS011;17710;52.520;13.352;2023-03-03T01:38:50;29.85;;;15.32;;
31043;SDS011;17710;52.520;13.352;2023-03-03T01:41:16;28.08;;;15.05;;
31043;SDS011;17710;52.520;13.352;2023-03-03T01:43:43;27.65;;;14.57;;
31043;SDS011;17710;52.520;13.352;2023-03-03T01:46:28;28.70;;;14.30;;
31043;SDS011;17710;52.520;13.352;2023-03-03T01:49:11;26.02;;;14.15;;
31043;SDS011;17710;52.520;13.352;2023-03-03T01:51:44;25.60;;;14.00;;
31043;SDS011;17710;52.520;13.352;2023-03-03T01:54:15;26.65;;;14.50;;
31043;SDS011;17710;52.520;13.352;2023-03-03T01:56:45;28.48;;;14.75;;
31043;SDS011;17710;52.520;13.352;2023-03-03T01:59:14;28.90;;;15.57;;
31043;SDS011;17710;52.520;13.352;2023-03-03T02:01:43;30.70;;;14.85;;
31043;SDS011;17710;52.520;13.352;2023-03-03T02:04:10;27.10;;;14.52;;
31043;SDS011;17710;52.520;13.352;2023-03-03T02:06:37;33.00;;;16.05;;
31043;SDS011;17710;52.520;13.352;2023-03-03T02:09:11;27.75;;;14.63;;
31043;SDS011;17710;52.520;13.352;2023-03-03T02:11:43;30.52;;;15.82;;
31043;SDS011;17710;52.520;13.352;2023-03-03T02:14:10;27.73;;;15.52;;
31043;SDS011;17710;52.520;13.352;2023-03-03T02:16:37;27.70;;;15.07;;
31043;SDS011;17710;52.520;13.352;2023-03-03T02:19:04;30.33;;;15.68;;
31043;SDS011;17710;52.520;13.352;2023-03-03T02:21:38;29.90;;;14.18;;
31043;SDS011;17710;52.520;13.352;2023-03-03T02:24:05;26.15;;;14.13;;
31043;SDS011;17710;52.520;13.352;2023-03-03T02:26:40;26.90;;;15.32;;
31043;SDS011;17710;52.520;13.352;2023-03-03T02:29:08;27.98;;;15.63;;
31043;SDS011;17710;52.520;13.352;2023-03-03T02:31:35;23.75;;;14.52;;
31043;SDS011;17710;52.520;13.352;2023-03-03T02:34:02;29.10;;;15.52;;
31043;SDS011;17710;52.520;13.352;2023-03-03T02:36:30;28.52;;;14.68;;
31043;SDS011;17710;52.520;13.352;2023-03-03T02:39:00;26.05;;;15.05;;
31043;SDS011;17710;52.520;13.352;2023-03-03T02:41:31;28.88;;;15.40;;
31043;SDS011;17710;52.520;13.352;2023-03-03T02:44:02;31.15;;;15.13;;
31043;SDS011;17710;52.520;13.352;2023-03-03T02:46:31;24.88;;;14.00;;
31043;SDS011;17710;52.520;13.352;2023-03-03T02:48:59;28.30;;;14.98;;
31043;SDS011;17710;52.520;13.352;2023-03-03T02:51:26;27.75;;;14.95;;
31043;SDS011;17710;52.520;13.352;2023-03-03T02:53:52;27.27;;;14.80;;
31043;SDS011;17710;52.520;13.352;2023-03-03T02:56:19;27.83;;;15.02;;
31043;SDS011;17710;52.520;13.352;2023-03-03T02:58:45;28.25;;;14.63;;
31043;SDS011;17710;52.520;13.352;2023-03-03T03:01:13;28.67;;;14.38;;
31043;SDS011;17710;52.520;13.352;2023-03-03T03:03:40;27.58;;;15.13;;
31043;SDS011;17710;52.520;13.352;2023-03-03T03:06:08;28.77;;;15.25;;
31043;SDS011;17710;52.520;13.352;2023-03-03T03:08:34;30.33;;;15.63;;
31043;SDS011;17710;52.520;13.352;2023-03-03T03:11:01;27.50;;;14.68;;
31043;SDS011;17710;52.520;13.352;2023-03-03T03:13:27;30.30;;;15.35;;
31043;SDS011;17710;52.520;13.352;2023-03-03T03:15:55;31.48;;;15.55;;
31043;SDS011;17710;52.520;13.352;2023-03-03T03:18:22;30.20;;;15.88;;
31043;SDS011;17710;52.520;13.352;2023-03-03T03:20:49;30.23;;;15.52;;
31043;SDS011;17710;52.520;13.352;2023-03-03T03:23:15;30.27;;;15.02;;
31043;SDS011;17710;52.520;13.352;2023-03-03T03:25:42;29.27;;;14.93;;
31043;SDS011;17710;52.520;13.352;2023-03-03T03:28:10;30.08;;;14.80;;
31043;SDS011;17710;52.520;13.352;2023-03-03T03:30:37;27.92;;;14.45;;
31043;SDS011;17710;52.520;13.352;2023-03-03T03:33:04;28.73;;;15.40;;
31043;SDS011;17710;52.520;13.352;2023-03-03T03:35:32;28.30;;;14.68;;
31043;SDS011;17710;52.520;13.352;2023-03-03T03:37:59;28.20;;;14.45;;
31043;SDS011;17710;52.520;13.352;2023-03-03T03:40:26;31.88;;;15.65;;
31043;SDS011;17710;52.520;13.352;2023-03-03T03:42:53;31.27;;;15.23;;
31043;SDS011;17710;52.520;13.352;2023-03-03T03:45:19;31.30;;;15.75;;
31043;SDS011;17710;52.520;13.352;2023-03-03T03:47:46;30.27;;;14.57;;
31043;SDS011;17710;52.520;13.352;2023-03-03T03:50:13;31.33;;;15.48;;
31043;SDS011;17710;52.520;13.352;2023-03-03T03:52:41;28.48;;;15.18;;
31043;SDS011;17710;52.520;13.352;2023-03-03T03:55:08;31.52;;;15.07;;
31043;SDS011;17710;52.520;13.352;2023-03-03T03:57:35;29.10;;;14.30;;
31043;SDS011;17710;52.520;13.352;2023-03-03T04:00:02;29.75;;;15.10;;
31043;SDS011;17710;52.520;13.352;2023-03-03T04:02:29;31.70;;;15.65;;
31043;SDS011;17710;52.520;13.352;2023-03-03T04:04:55;35.25;;;15.18;;
31043;SDS011;17710;52.520;13.352;2023-03-03T04:07:22;32.83;;;16.75;;
31043;SDS011;17710;52.520;13.352;2023-03-03T04:09:50;34.40;;;16.70;;
31043;SDS011;17710;52.520;13.352;2023-03-03T04:12:16;30.35;;;15.73;;
31043;SDS011;17710;52.520;13.352;2023-03-03T04:14:43;34.92;;;16.42;;
31043;SDS011;17710;52.520;13.352;2023-03-03T04:17:10;32.85;;;15.57;;
31043;SDS011;17710;52.520;13.352;2023-03-03T04:19:42;31.38;;;15.13;;
31043;SDS011;17710;52.520;13.352;2023-03-03T04:22:08;27.70;;;13.82;;
31043;SDS011;17710;52.520;13.352;2023-03-03T04:24:36;31.02;;;14.55;;
31043;SDS011;17710;52.520;13.352;2023-03-03T04:27:04;29.23;;;14.55;;
31043;SDS011;17710;52.520;13.352;2023-03-03T04:29:30;29.02;;;14.48;;
31043;SDS011;17710;52.520;13.352;2023-03-03T04:31:57;25.05;;;12.57;;
31043;SDS011;17710;52.520;13.352;2023-03-03T04:34:23;22.98;;;11.55;;
31043;SDS011;17710;52.520;13.352;2023-03-03T04:36:50;26.15;;;12.90;;
31043;SDS011;17710;52.520;13.352;2023-03-03T04:39:17;33.97;;;16.58;;
31043;SDS011;17710;52.520;13.352;2023-03-03T04:41:43;41.95;;;19.05;;
31043;SDS011;17710;52.520;13.352;2023-03-03T04:44:11;40.67;;;17.65;;
31043;SDS011;17710;52.520;13.352;2023-03-03T04:46:38;37.78;;;17.23;;
31043;SDS011;17710;52.520;13.352;2023-03-03T04:49:04;43.50;;;18.05;;
31043;SDS011;17710;52.520;13.352;2023-03-03T04:51:34;47.55;;;18.92;;
31043;SDS011;17710;52.520;13.352;2023-03-03T04:54:01;43.60;;;18.55;;
31043;SDS011;17710;52.520;13.352;2023-03-03T04:56:28;38.53;;;18.13;;
31043;SDS011;17710;52.520;13.352;2023-03-03T04:58:55;43.25;;;19.13;;
31043;SDS011;17710;52.520;13.352;2023-03-03T05:01:23;42.30;;;18.13;;
31043;SDS011;17710;52.520;13.352;2023-03-03T05:03:49;43.40;;;18.58;;
31043;SDS011;17710;52.520;13.352;2023-03-03T05:06:16;44.58;;;18.50;;
31043;SDS011;17710;52.520;13.352;2023-03-03T05:08:43;40.55;;;18.67;;
31043;SDS011;17710;52.520;13.352;2023-03-03T05:11:09;42.72;;;18.92;;
31043;SDS011;17710;52.520;13.352;2023-03-03T05:13:36;46.00;;;18.98;;
31043;SDS011;17710;52.520;13.352;2023-03-03T05:16:03;47.17;;;19.45;;
31043;SDS011;17710;52.520;13.352;2023-03-03T05:18:31;51.53;;;21.50;;
31043;SDS011;17710;52.520;13.352;2023-03-03T05:20:58;45.55;;;20.25;;
31043;SDS011;17710;52.520;13.352;2023-03-03T05:23:24;47.85;;;20.10;;
31043;SDS011;17710;52.520;13.352;2023-03-03T05:25:51;49.20;;;21.20;;
31043;SDS011;17710;52.520;13.352;2023-03-03T05:28:17;52.95;;;22.08;;
31043;SDS011;17710;52.520;13.352;2023-03-03T05:30:44;48.03;;;21.02;;
31043;SDS011;17710;52.520;13.352;2023-03-03T05:33:11;50.97;;;21.50;;
31043;SDS011;17710;52.520;13.352;2023-03-03T05:35:41;48.58;;;21.65;;
31043;SDS011;17710;52.520;13.352;2023-03-03T05:38:08;44.85;;;19.10;;
31043;SDS011;17710;52.520;13.352;2023-03-03T05:40:34;48.03;;;20.92;;
31043;SDS011;17710;52.520;13.352;2023-03-03T05:43:02;48.25;;;20.17;;
31043;SDS011;17710;52.520;13.352;2023-03-03T05:45:29;49.03;;;20.65;;
31043;SDS011;17710;52.520;13.352;2023-03-03T05:47:55;48.17;;;20.77;;
31043;SDS011;17710;52.520;13.352;2023-03-03T05:50:22;50.83;;;21.08;;
31043;SDS011;17710;52.520;13.352;2023-03-03T05:52:50;45.30;;;19.50;;
31043;SDS011;17710;52.520;13.352;2023-03-03T05:55:17;43.25;;;18.63;;
31043;SDS011;17710;52.520;13.352;2023-03-03T05:57:44;43.53;;;18.80;;
31043;SDS011;17710;52.520;13.352;2023-03-03T06:00:12;39.45;;;17.63;;
31043;SDS011;17710;52.520;13.352;2023-03-03T06:02:39;37.05;;;16.58;;
31043;SDS011;17710;52.520;13.352;2023-03-03T06:05:07;34.08;;;15.63;;
31043;SDS011;17710;52.520;13.352;2023-03-03T06:07:34;31.42;;;14.25;;
31043;SDS011;17710;52.520;13.352;2023-03-03T06:10:03;35.70;;;15.55;;
31043;SDS011;17710;52.520;13.352;2023-03-03T06:12:30;35.42;;;15.40;;
31043;SDS011;17710;52.520;13.352;2023-03-03T06:14:57;35.58;;;16.23;;
31043;SDS011;17710;52.520;13.352;2023-03-03T06:17:23;40.10;;;17.90;;
31043;SDS011;17710;52.520;13.352;2023-03-03T06:19:50;40.03;;;15.43;;
31043;SDS011;17710;52.520;13.352;2023-03-03T06:22:37;36.80;;;16.42;;
31043;SDS011;17710;52.520;13.352;2023-03-03T06:25:06;34.85;;;14.27;;
31043;SDS011;17710;52.520;13.352;2023-03-03T06:27:33;32.63;;;15.23;;
31043;SDS011;17710;52.520;13.352;2023-03-03T06:29:59;32.72;;;14.55;;
31043;SDS011;17710;52.520;13.352;2023-03-03T06:32:26;28.33;;;13.80;;
31043;SDS011;17710;52.520;13.352;2023-03-03T06:34:52;29.25;;;13.02;;
31043;SDS011;17710;52.520;13.352;2023-03-03T06:37:19;31.67;;;13.65;;
31043;SDS011;17710;52.520;13.352;2023-03-03T06:39:45;31.00;;;14.45;;
31043;SDS011;17710;52.520;13.352;2023-03-03T06:42:13;24.92;;;11.55;;
31043;SDS011;17710;52.520;13.352;2023-03-03T06:44:40;27.08;;;12.63;;
31043;SDS011;17710;52.520;13.352;2023-03-03T06:47:06;37.30;;;15.55;;
31043;SDS011;17710;52.520;13.352;2023-03-03T06:49:33;34.42;;;14.73;;
31043;SDS011;17710;52.520;13.352;2023-03-03T06:52:00;41.22;;;16.25;;
31043;SDS011;17710;52.520;13.352;2023-03-03T06:54:34;48.35;;;21.08;;
31043;SDS011;17710;52.520;13.352;2023-03-03T06:57:02;40.67;;;16.98;;
31043;SDS011;17710;52.520;13.352;2023-03-03T06:59:41;48.25;;;19.05;;
31043;SDS011;17710;52.520;13.352;2023-03-03T07:02:10;48.97;;;19.10;;
31043;SDS011;17710;52.520;13.352;2023-03-03T07:04:41;51.70;;;20.52;;
31043;SDS011;17710;52.520;13.352;2023-03-03T07:07:15;57.83;;;22.10;;
31043;SDS011;17710;52.520;13.352;2023-03-03T07:09:48;57.33;;;21.05;;
31043;SDS011;17710;52.520;13.352;2023-03-03T07:12:30;55.60;;;20.92;;
31043;SDS011;17710;52.520;13.352;2023-03-03T07:15:00;56.00;;;21.80;;
31043;SDS011;17710;52.520;13.352;2023-03-03T07:17:41;47.20;;;18.67;;
31043;SDS011;17710;52.520;13.352;2023-03-03T07:20:14;46.75;;;17.60;;
31043;SDS011;17710;52.520;13.352;2023-03-03T07:22:44;45.92;;;16.25;;
31043;SDS011;17710;52.520;13.352;2023-03-03T07:25:17;35.45;;;15.40;;
31043;SDS011;17710;52.520;13.352;2023-03-03T07:27:46;34.92;;;15.48;;
31043;SDS011;17710;52.520;13.352;2023-03-03T07:30:19;41.55;;;18.80;;
31043;SDS011;17710;52.520;13.352;2023-03-03T07:32:50;34.72;;;15.38;;
31043;SDS011;17710;52.520;13.352;2023-03-03T07:35:26;40.20;;;16.05;;
31043;SDS011;17710;52.520;13.352;2023-03-03T07:38:00;41.47;;;17.65;;
31043;SDS011;17710;52.520;13.352;2023-03-03T07:40:30;41.60;;;16.75;;
31043;SDS011;17710;52.520;13.352;2023-03-03T07:43:12;52.15;;;18.17;;
31043;SDS011;17710;52.520;13.352;2023-03-03T07:45:58;43.38;;;17.17;;
31043;SDS011;17710;52.520;13.352;2023-03-03T07:48:29;39.08;;;16.38;;
31043;SDS011;17710;52.520;13.352;2023-03-03T07:51:00;43.95;;;17.27;;
31043;SDS011;17710;52.520;13.352;2023-03-03T07:53:32;37.50;;;16.33;;
31043;SDS011;17710;52.520;13.352;2023-03-03T07:56:02;36.35;;;15.30;;
31043;SDS011;17710;52.520;13.352;2023-03-03T07:58:35;31.70;;;15.23;;
31043;SDS011;17710;52.520;13.352;2023-03-03T08:04:04;40.45;;;16.70;;
31043;SDS011;17710;52.520;13.352;2023-03-03T08:06:41;41.75;;;16.63;;
31043;SDS011;17710;52.520;13.352;2023-03-03T08:09:23;42.75;;;16.98;;
31043;SDS011;17710;52.520;13.352;2023-03-03T08:12:19;44.70;;;17.85;;
31043;SDS011;17710;52.520;13.352;2023-03-03T08:14:57;46.08;;;17.58;;
31043;SDS011;17710;52.520;13.352;2023-03-03T08:20:01;34.28;;;15.63;;
31043;SDS011;17710;52.520;13.352;2023-03-03T08:22:55;30.83;;;13.50;;
31043;SDS011;17710;52.520;13.352;2023-03-03T08:25:22;45.05;;;17.58;;
31043;SDS011;17710;52.520;13.352;2023-03-03T08:27:48;30.45;;;14.43;;
31043;SDS011;17710;52.520;13.352;2023-03-03T08:30:15;26.55;;;13.27;;
31043;SDS011;17710;52.520;13.352;2023-03-03T08:32:43;38.10;;;17.45;;
31043;SDS011;17710;52.520;13.352;2023-03-03T08:35:09;34.85;;;16.30;;
31043;SDS011;17710;52.520;13.352;2023-03-03T08:37:36;29.88;;;14.48;;
31043;SDS011;17710;52.520;13.352;2023-03-03T08:40:02;34.33;;;14.20;;
31043;SDS011;17710;52.520;13.352;2023-03-03T08:42:29;34.33;;;14.80;;
31043;SDS011;17710;52.520;13.352;2023-03-03T08:44:57;31.65;;;14.98;;
31043;SDS011;17710;52.520;13.352;2023-03-03T08:47:23;39.63;;;18.13;;
31043;SDS011;17710;52.520;13.352;2023-03-03T08:49:51;49.97;;;20.88;;
31043;SDS011;17710;52.520;13.352;2023-03-03T08:52:18;48.08;;;21.20;;
31043;SDS011;17710;52.520;13.352;2023-03-03T08:54:45;50.05;;;22.13;;
31043;SDS011;17710;52.520;13.352;2023-03-03T08:57:11;46.75;;;20.50;;
31043;SDS011;17710;52.520;13.352;2023-03-03T08:59:38;50.13;;;22.10;;
31043;SDS011;17710;52.520;13.352;2023-03-03T09:02:05;46.88;;;20.15;;
31043;SDS011;17710;52.520;13.352;2023-03-03T09:04:32;36.38;;;17.25;;
31043;SDS011;17710;52.520;13.352;2023-03-03T09:07:00;46.28;;;20.60;;
31043;SDS011;17710;52.520;13.352;2023-03-03T09:09:26;34.92;;;17.35;;
31043;SDS011;17710;52.520;13.352;2023-03-03T09:11:53;38.15;;;17.88;;
31043;SDS011;17710;52.520;13.352;2023-03-03T09:14:24;45.13;;;19.95;;
31043;SDS011;17710;52.520;13.352;2023-03-03T09:16:54;37.08;;;17.13;;
31043;SDS011;17710;52.520;13.352;2023-03-03T09:19:23;38.40;;;17.88;;
31043;SDS011;17710;52.520;13.352;2023-03-03T09:21:52;33.38;;;16.42;;
31043;SDS011;17710;52.520;13.352;2023-03-03T09:24:26;36.33;;;18.30;;
31043;SDS011;17710;52.520;13.352;2023-03-03T09:26:53;37.42;;;19.30;;
31043;SDS011;17710;52.520;13.352;2023-03-03T09:29:24;44.10;;;20.23;;
31043;SDS011;17710;52.520;13.352;2023-03-03T09:31:53;47.80;;;23.42;;
31043;SDS011;17710;52.520;13.352;2023-03-03T09:34:22;48.00;;;23.02;;
31043;SDS011;17710;52.520;13.352;2023-03-03T09:36:52;46.13;;;21.77;;
31043;SDS011;17710;52.520;13.352;2023-03-03T09:39:20;48.10;;;23.08;;
31043;SDS011;17710;52.520;13.352;2023-03-03T09:44:59;40.45;;;19.05;;
31043;SDS011;17710;52.520;13.352;2023-03-03T09:47:39;39.45;;;18.70;;
31043;SDS011;17710;52.520;13.352;2023-03-03T09:50:16;39.27;;;20.00;;
31043;SDS011;17710;52.520;13.352;2023-03-03T09:52:54;42.63;;;21.77;;
31043;SDS011;17710;52.520;13.352;2023-03-03T09:55:35;46.00;;;24.55;;
31043;SDS011;17710;52.520;13.352;2023-03-03T09:58:18;50.38;;;25.48;;
31043;SDS011;17710;52.520;13.352;2023-03-03T10:00:58;53.88;;;26.25;;
31043;SDS011;17710;52.520;13.352;2023-03-03T10:03:39;49.72;;;25.33;;
31043;SDS011;17710;52.520;13.352;2023-03-03T10:06:17;51.10;;;25.23;;
31043;SDS011;17710;52.520;13.352;2023-03-03T10:08:57;53.47;;;25.67;;
31043;SDS011;17710;52.520;13.352;2023-03-03T10:11:34;45.03;;;23.10;;
31043;SDS011;17710;52.520;13.352;2023-03-03T10:14:12;40.75;;;22.40;;
31043;SDS011;17710;52.520;13.352;2023-03-03T10:17:05;38.47;;;21.23;;
31043;SDS011;17710;52.520;13.352;2023-03-03T10:19:50;35.17;;;19.02;;
31043;SDS011;17710;52.520;13.352;2023-03-03T10:22:31;28.63;;;15.27;;
31043;SDS011;17710;52.520;13.352;2023-03-03T10:25:14;32.38;;;17.65;;
31043;SDS011;17710;52.520;13.352;2023-03-03T10:27:50;44.22;;;22.40;;
31043;SDS011;17710;52.520;13.352;2023-03-03T10:30:30;48.00;;;23.48;;
31043;SDS011;17710;52.520;13.352;2023-03-03T10:33:07;40.55;;;21.83;;
31043;SDS011;17710;52.520;13.352;2023-03-03T10:36:03;37.88;;;19.58;;
31043;SDS011;17710;52.520;13.352;2023-03-03T10:38:53;49.97;;;24.83;;
31043;SDS011;17710;52.520;13.352;2023-03-03T10:41:34;49.30;;;25.35;;
31043;SDS011;17710;52.520;13.352;2023-03-03T10:44:25;33.83;;;17.30;;
31043;SDS011;17710;52.520;13.352;2023-03-03T10:47:20;37.35;;;17.42;;
31043;SDS011;17710;52.520;13.352;2023-03-03T10:50:00;33.30;;;14.85;;
31043;SDS011;17710;52.520;13.352;2023-03-03T10:52:40;33.25;;;15.52;;
31043;SDS011;17710;52.520;13.352;2023-03-03T10:55:15;33.85;;;16.50;;
31043;SDS011;17710;52.520;13.352;2023-03-03T10:57:51;29.80;;;15.80;;
31043;SDS011;17710;52.520;13.352;2023-03-03T11:00:28;27.75;;;14.13;;
31043;SDS011;17710;52.520;13.352;2023-03-03T11:06:04;41.15;;;19.90;;
31043;SDS011;17710;52.520;13.352;2023-03-03T11:08:45;38.65;;;18.33;;
31043;SDS011;17710;52.520;13.352;2023-03-03T11:11:17;36.97;;;18.58;;
31043;SDS011;17710;52.520;13.352;2023-03-03T11:13:51;43.70;;;19.05;;
31043;SDS011;17710;52.520;13.352;2023-03-03T11:16:34;36.33;;;17.65;;
31043;SDS011;17710;52.520;13.352;2023-03-03T11:19:11;38.05;;;17.83;;
31043;SDS011;17710;52.520;13.352;2023-03-03T11:21:55;41.45;;;20.35;;
31043;SDS011;17710;52.520;13.352;2023-03-03T11:24:39;46.30;;;21.02;;
31043;SDS011;17710;52.520;13.352;2023-03-03T11:32:59;41.25;;;19.05;;
31043;SDS011;17710;52.520;13.352;2023-03-03T11:35:32;48.42;;;22.00;;
31043;SDS011;17710;52.520;13.352;2023-03-03T11:38:18;45.42;;;21.05;;
31043;SDS011;17710;52.520;13.352;2023-03-03T11:40:56;48.33;;;22.02;;
31043;SDS011;17710;52.520;13.352;2023-03-03T11:43:29;52.08;;;24.10;;
31043;SDS011;17710;52.520;13.352;2023-03-03T11:46:01;42.65;;;20.08;;
31043;SDS011;17710;52.520;13.352;2023-03-03T11:48:32;43.35;;;20.77;;
31043;SDS011;17710;52.520;13.352;2023-03-03T11:51:06;39.45;;;19.10;;
31043;SDS011;17710;52.520;13.352;2023-03-03T11:53:39;48.22;;;22.52;;
31043;SDS011;17710;52.520;13.352;2023-03-03T11:56:21;55.40;;;26.60;;
31043;SDS011;17710;52.520;13.352;2023-03-03T11:58:51;47.50;;;23.73;;
31043;SDS011;17710;52.520;13.352;2023-03-03T12:01:29;44.80;;;21.92;;
31043;SDS011;17710;52.520;13.352;2023-03-03T12:04:02;43.72;;;20.38;;
31043;SDS011;17710;52.520;13.352;2023-03-03T12:06:32;46.08;;;20.98;;
31043;SDS011;17710;52.520;13.352;2023-03-03T12:09:14;51.15;;;23.58;;
31043;SDS011;17710;52.520;13.352;2023-03-03T12:11:49;43.22;;;22.48;;
31043;SDS011;17710;52.520;13.352;2023-03-03T12:14:25;47.25;;;21.92;;
31043;SDS011;17710;52.520;13.352;2023-03-03T12:17:02;42.95;;;20.08;;
31043;SDS011;17710;52.520;13.352;2023-03-03T12:19:36;32.53;;;15.38;;
31043;SDS011;17710;52.520;13.352;2023-03-03T12:22:15;33.60;;;16.95;;
31043;SDS011;17710;52.520;13.352;2023-03-03T12:25:01;44.60;;;18.15;;
31043;SDS011;17710;52.520;13.352;2023-03-03T12:27:44;38.10;;;18.00;;
31043;SDS011;17710;52.520;13.352;2023-03-03T12:30:25;48.13;;;23.35;;
31043;SDS011;17710;52.520;13.352;2023-03-03T12:33:14;48.63;;;23.75;;
31043;SDS011;17710;52.520;13.352;2023-03-03T12:35:49;64.97;;;29.90;;
31043;SDS011;17710;52.520;13.352;2023-03-03T12:38:25;59.75;;;30.20;;
31043;SDS011;17710;52.520;13.352;2023-03-03T12:41:02;60.00;;;30.50;;
31043;SDS011;17710;52.520;13.352;2023-03-03T12:43:39;57.10;;;26.92;;
31043;SDS011;17710;52.520;13.352;2023-03-03T12:46:14;58.97;;;28.55;;
31043;SDS011;17710;52.520;13.352;2023-03-03T12:48:48;60.03;;;30.20;;
31043;SDS011;17710;52.520;13.352;2023-03-03T12:51:17;46.85;;;22.92;;
31043;SDS011;17710;52.520;13.352;2023-03-03T12:54:01;43.13;;;20.52;;
31043;SDS011;17710;52.520;13.352;2023-03-03T12:56:40;44.80;;;20.42;;
31043;SDS011;17710;52.520;13.352;2023-03-03T12:59:12;47.33;;;23.02;;
31043;SDS011;17710;52.520;13.352;2023-03-03T13:01:51;56.30;;;26.58;;
31043;SDS011;17710;52.520;13.352;2023-03-03T13:04:28;50.92;;;24.95;;
31043;SDS011;17710;52.520;13.352;2023-03-03T13:07:03;52.38;;;23.88;;
31043;SDS011;17710;52.520;13.352;2023-03-03T13:09:37;43.20;;;19.88;;
31043;SDS011;17710;52.520;13.352;2023-03-03T13:12:21;43.85;;;19.58;;
31043;SDS011;17710;52.520;13.352;2023-03-03T13:15:02;37.33;;;17.42;;
31043;SDS011;17710;52.520;13.352;2023-03-03T13:17:35;37.65;;;17.63;;
31043;SDS011;17710;52.520;13.352;2023-03-03T13:20:11;31.67;;;15.65;;
31043;SDS011;17710;52.520;13.352;2023-03-03T13:22:46;27.52;;;13.02;;
31043;SDS011;17710;52.520;13.352;2023-03-03T13:25:30;37.92;;;17.95;;
31043;SDS011;17710;52.520;13.352;2023-03-03T13:28:10;33.97;;;16.25;;
31043;SDS011;17710;52.520;13.352;2023-03-03T13:30:46;31.33;;;16.08;;
31043;SDS011;17710;52.520;13.352;2023-03-03T13:33:15;29.23;;;13.93;;
31043;SDS011;17710;52.520;13.352;2023-03-03T13:35:47;34.03;;;16.83;;
31043;SDS011;17710;52.520;13.352;2023-03-03T13:38:19;31.25;;;15.30;;
31043;SDS011;17710;52.520;13.352;2023-03-03T13:40:53;34.75;;;15.85;;
31043;SDS011;17710;52.520;13.352;2023-03-03T13:43:27;40.80;;;20.02;;
31043;SDS011;17710;52.520;13.352;2023-03-03T13:45:58;31.35;;;16.20;;
31043;SDS011;17710;52.520;13.352;2023-03-03T13:48:35;41.47;;;20.05;;
31043;SDS011;17710;52.520;13.352;2023-03-03T13:51:13;40.13;;;20.08;;
31043;SDS011;17710;52.520;13.352;2023-03-03T13:53:53;43.70;;;20.35;;
31043;SDS011;17710;52.520;13.352;2023-03-03T13:56:34;40.88;;;20.33;;
31043;SDS011;17710;52.520;13.352;2023-03-03T13:59:10;35.75;;;16.50;;
31043;SDS011;17710;52.520;13.352;2023-03-03T14:01:51;33.88;;;16.35;;
31043;SDS011;17710;52.520;13.352;2023-03-03T14:04:34;37.80;;;19.97;;
31043;SDS011;17710;52.520;13.352;2023-03-03T14:07:14;35.50;;;18.88;;
31043;SDS011;17710;52.520;13.352;2023-03-03T14:09:51;37.70;;;17.92;;
31043;SDS011;17710;52.520;13.352;2023-03-03T14:12:28;32.33;;;16.17;;
31043;SDS011;17710;52.520;13.352;2023-03-03T14:15:05;28.83;;;14.82;;
31043;SDS011;17710;52.520;13.352;2023-03-03T14:17:47;28.17;;;14.80;;
31043;SDS011;17710;52.520;13.352;2023-03-03T14:20:23;32.83;;;15.65;;
31043;SDS011;17710;52.520;13.352;2023-03-03T14:22:55;34.33;;;15.82;;
31043;SDS011;17710;52.520;13.352;2023-03-03T14:25:24;28.63;;;15.30;;
31043;SDS011;17710;52.520;13.352;2023-03-03T14:28:03;33.63;;;17.08;;
31043;SDS011;17710;52.520;13.352;2023-03-03T14:33:17;33.40;;;17.23;;
31043;SDS011;17710;52.520;13.352;2023-03-03T14:35:50;34.92;;;17.77;;
31043;SDS011;17710;52.520;13.352;2023-03-03T14:38:35;34.78;;;18.23;;
31043;SDS011;17710;52.520;13.352;2023-03-03T14:41:11;38.17;;;18.75;;
31043;SDS011;17710;52.520;13.352;2023-03-03T14:43:43;34.15;;;17.08;;
31043;SDS011;17710;52.520;13.352;2023-03-03T14:46:23;31.27;;;16.15;;
31043;SDS011;17710;52.520;13.352;2023-03-03T14:48:58;35.92;;;15.98;;
31043;SDS011;17710;52.520;13.352;2023-03-03T14:51:27;31.23;;;15.60;;
31043;SDS011;17710;52.520;13.352;2023-03-03T14:53:58;34.40;;;15.90;;
31043;SDS011;17710;52.520;13.352;2023-03-03T14:56:25;35.05;;;16.52;;